AirNav   Pilot Hours Calculator
 
 500 users online  

NC42 Piney Ridge Airport
Yadkinville, North Carolina, USA

GOING TO YADKINVILLE?


FAA INFORMATION EFFECTIVE 03 NOVEMBER 2022

Location

FAA Identifier: NC42
Lat/Long: 36-04-02.5000N 080-42-04.0000W
36-04.041667N 080-42.066667W
36.0673611,-80.7011111
(estimated)
Elevation: 960 ft. / 293 m (estimated)
Variation: 06W (1995)
From city: 4 miles SW of YADKINVILLE, NC
Time zone: UTC -5 (UTC -4 during Daylight Saving Time)
Zip code: 27055

Airport Operations

Airport use: Private use. Permission required prior to landing
Activation date: 02/1990
Control tower: no
ARTCC: ATLANTA CENTER
FSS: RALEIGH FLIGHT SERVICE STATION
Attendance: UNATNDD
Wind indicator: yes
Segmented circle: no

Nearby radio navigation aids

VOR radial/distance  VOR name  Freq  Var
BZMr072/28.8BARRETTS MOUNTAIN VOR/DME113.7506W
GSOr275/35.2GREENSBORO VORTAC116.2003W

 
NDB name  Hdg/Dist  Freq  Var  ID
ASHEE133/37.241007WJUH .--- ..- ....

Airport Services

Runway Information

Runway 18/36

Dimensions: 1700 x 60 ft. / 518 x 18 m
Surface: turf
RUNWAY 18  RUNWAY 36
Traffic pattern: leftleft

Airport Ownership and Management from official FAA records

Ownership: Privately-owned
Owner: KEN CHEEK
2412 LONE HICKORY RD
YADKINVILLE, NC 27055
Phone 336-463-2303
Manager: KEN CHEEK
2412 LONE HICKORY RD
YADKINVILLE, NC 27055
Phone 336-463-2303

Airport Operational Statistics

Aircraft based on the field: 3
Single engine airplanes: 3
    

Additional Remarks

DUE TO RWY SLOPE, DEPART RWY 36, LAND RWY 18.
FOR CD CTC ATLANTA ARTCC AT 770-210-7692.
USE CAUTION, DEER ACTIVITY AROUND AIRSTRIP.
LAND WITH PRIOR PERMISSION ONLY, CTC AMGR.

Instrument Procedures

There are no published instrument procedures at NC42.

Some nearby airports with instrument procedures:

KZEF - Elkin Municipal Airport (13 nm N)
8A7 - Twin Lakes Airport (15 nm SE)
KUKF - Wilkes County Airport (21 nm NW)
KSVH - Statesville Regional Airport (22 nm SW)
KINT - Smith Reynolds Airport (24 nm E)
 
Loc | Ops | Rwys | IFR | FBO | Links
Com | Nav | Svcs | Stats | Notes
Area around NC42 (Piney Ridge Airport)
 
Road maps at: MapQuest Bing Google
 
Aerial photo
No photo
 
Sectional chart

 
Airport distance calculator
Flying to Piney Ridge Airport? Find the distance to fly.

From to NC42

Sunrise and sunset
Times for 28-Nov-2022
 Local
(UTC-5)
 Zulu
(UTC)
Morning civil twilight06:4511:45
Sunrise07:1312:13
Sunset17:0822:08
Evening civil twilight17:3622:36

Current date and time
Zulu (UTC)  28-Nov-2022 07:13:18
Local (UTC-5)  28-Nov-2022 02:13:18
 
METAR
KUKF 
21nm NW 
280655Z AUTO 25010G16KT 10SM OVC044 12/05 A2981 RMK AO2
KSVH 
23nm SW 
280655Z AUTO 24005KT 10SM CLR 10/06 A2977 RMK AO2 T01040057
KINT 
24nm E 
280654Z AUTO 27011G18KT 10SM FEW050 14/05 A2976 RMK AO2 SLP071 T01390050
KMWK 
25nm N 
280655Z AUTO 27004KT 10SM OVC048 12/05 A2977 RMK AO2 T01200047
KEXX 
26nm SE 
280655Z AUTO 00000KT 10SM CLR 10/07 A2976 RMK AO2 T01020065
KRUQ 
27nm S 
280655Z AUTO 24004KT 10SM CLR 11/06 A2977 RMK AO2 T01110056
KGSO 
36nm E 
280654Z 26007KT 10SM CLR 10/05 A2974 RMK AO2 SLP066 T01000050
KHKY 
38nm SW 
280653Z 28009G15KT 10SM SCT050 12/06 A2978 RMK AO2 SLP068 T01220056 $
KGEV 
41nm NW 
280655Z AUTO 28010G26KT 10SM OVC020 07/03 A2976 RMK AO2 T00660026
KJQF 
41nm S 
280655Z AUTO 00000KT 10SM CLR 11/06 A2980 RMK AO2
TAF
KINT 
24nm E 
280523Z 2806/2906 27006KT P6SM SCT025 SCT250 FM281400 30008G16KT P6SM BKN040 FM282200 31006KT P6SM SKC
NOTAMs
Click for the latest NOTAMs
NOTAMs are issued by the DoD/FAA and will open in a separate window not controlled by AirNav.

 

 
 

Would you like to see your business listed on this page?

 If your business provides an interesting product or service to pilots, flight crews, aircraft, or users of the Piney Ridge Airport, you should consider listing it here.  To start the listing process, click on the button below
 
Add a business
 

Other Pages about Piney Ridge Airport

Update a link
 
Copyright © AirNav, LLC. All rights reserved. Privacy Policy  Contact